Time;durP1;ratioP1;P1;durP2;ratioP2;P2;SDS_P1;SDS_P2;PMS_P1;PMS_P2;Temp;Humidity;BMP_temperature;BMP_pressure;BME280_temperature;BME280_humidity;BME280_pressure;Samples;Min_cycle;Max_cycle;Signal;HPM_P1;HPM_P2
2022/07/31 00:01:07;;;;;;;6.95;6.28;;;;;;;18.07;73.50;99073.66;5080442;28;20036;-83
2022/07/31 00:03:32;;;;;;;7.00;6.43;;;;;;;18.30;72.79;99067.38;5046110;28;20059;-82
2022/07/31 00:05:57;;;;;;;7.32;6.45;;;;;;;18.25;72.65;99053.13;5064296;28;20054;-82
2022/07/31 00:08:23;;;;;;;11.75;10.55;;;;;;;17.90;78.28;99074.16;5063079;28;20083;-82
2022/07/31 00:10:48;;;;;;;13.13;10.07;;;;;;;17.39;79.05;99043.44;5051462;28;20497;-82
2022/07/31 00:13:14;;;;;;;16.90;12.23;;;;;;;16.95;82.37;99067.13;5034336;28;21251;-82
2022/07/31 00:15:39;;;;;;;7.40;6.68;;;;;;;17.20;79.40;99062.28;5033839;28;20039;-82
2022/07/31 00:18:04;;;;;;;9.10;8.30;;;;;;;17.31;79.10;99054.06;5057741;28;20138;-82
2022/07/31 00:20:30;;;;;;;7.53;6.72;;;;;;;17.83;74.68;99052.09;5046949;28;20120;-82
2022/07/31 00:22:56;;;;;;;6.40;5.80;;;;;;;18.04;73.27;99051.81;5065415;28;20061;-83
2022/07/31 00:25:22;;;;;;;7.65;6.40;;;;;;;18.31;72.65;99068.97;5063263;28;20028;-83
2022/07/31 00:27:47;;;;;;;7.55;6.85;;;;;;;18.47;72.50;99064.16;5068271;28;20111;-83
2022/07/31 00:30:13;;;;;;;9.88;8.98;;;;;;;17.98;75.84;99067.28;5069604;28;20128;-83
2022/07/31 00:32:39;;;;;;;10.82;9.82;;;;;;;17.49;79.66;99066.81;5048212;28;20040;-82
2022/07/31 00:35:05;;;;;;;8.25;6.95;;;;;;;17.63;76.81;99063.16;5071433;28;20039;-83
2022/07/31 00:37:33;;;;;;;10.68;9.57;;;;;;;17.27;80.59;99064.63;5065523;28;20066;-83
2022/07/31 00:39:59;;;;;;;8.30;7.60;;;;;;;17.17;80.45;99059.31;5068505;28;20497;-82
2022/07/31 00:42:24;;;;;;;11.90;10.80;;;;;;;17.64;77.81;99059.38;5050616;28;20113;-82
2022/07/31 00:44:51;;;;;;;11.27;9.98;;;;;;;17.14;81.27;99041.84;5071029;28;20020;-82
2022/07/31 00:47:17;;;;;;;14.55;13.05;;;;;;;17.05;82.34;99046.25;5067404;28;20017;-82
2022/07/31 00:49:44;;;;;;;13.23;11.93;;;;;;;16.83;83.26;99043.22;5052071;28;20036;-83
2022/07/31 00:52:10;;;;;;;13.25;11.43;;;;;;;16.86;83.33;99058.81;5061242;28;20020;-82
2022/07/31 00:54:35;;;;;;;13.48;12.20;;;;;;;16.83;83.76;99061.28;5063064;28;20020;-82
2022/07/31 00:57:02;;;;;;;14.73;12.93;;;;;;;16.81;84.04;99061.59;5049429;28;20039;-82
2022/07/31 00:59:28;;;;;;;12.73;9.15;;;;;;;16.79;84.01;99062.94;5066113;28;20020;-83
2022/07/31 01:01:54;;;;;;;7.15;6.47;;;;;;;17.42;76.79;99052.84;5065211;28;20568;-83
2022/07/31 01:04:20;;;;;;;7.80;6.60;;;;;;;17.89;74.82;99055.50;5048573;28;20445;-83
2022/07/31 01:06:46;;;;;;;8.43;6.38;;;;;;;18.23;73.67;99063.44;5063956;28;20032;-83
2022/07/31 01:09:13;;;;;;;8.18;6.05;;;;;;;18.26;72.72;99049.34;5067851;28;20060;-83
2022/07/31 01:12:13;;;;;;;6.78;6.18;;;;;;;18.38;73.09;99060.50;5077609;28;20062;-83
2022/07/31 01:14:51;;;;;;;8.88;6.55;;;;;;;18.40;72.75;99061.00;5069614;28;20028;-83
2022/07/31 01:17:20;;;;;;;6.78;6.18;;;;;;;18.39;72.74;99060.19;5068404;28;20529;-82
2022/07/31 01:19:47;;;;;;;8.23;6.53;;;;;;;18.39;72.56;99054.00;5055869;28;20226;-83
2022/07/31 01:22:32;;;;;;;6.57;5.97;;;;;;;18.27;72.64;99040.13;5069736;28;20450;-82
2022/07/31 01:25:16;;;;;;;7.97;6.47;;;;;;;18.45;72.61;99064.47;5065494;28;20098;-83
2022/07/31 01:28:09;;;;;;;10.30;6.50;;;;;;;18.42;72.76;99056.09;5082855;28;20078;-82
2022/07/31 01:30:55;;;;;;;7.63;6.50;;;;;;;18.36;72.80;99049.19;5070004;28;20021;-82
2022/07/31 01:33:26;;;;;;;7.57;6.80;;;;;;;18.39;72.85;99054.78;5077127;28;20036;-82
2022/07/31 01:36:01;;;;;;;7.05;6.45;;;;;;;18.31;72.64;99043.84;5052551;28;20127;-82
2022/07/31 01:38:38;;;;;;;9.63;6.30;;;;;;;18.26;72.85;99043.94;5066734;28;20024;-82
2022/07/31 01:41:11;;;;;;;8.13;6.50;;;;;;;18.37;72.89;99046.16;5051103;28;20037;-82
2022/07/31 01:43:40;;;;;;;6.82;6.20;;;;;;;18.45;72.67;99052.84;5070290;28;20035;-82
2022/07/31 01:46:10;;;;;;;7.07;5.85;;;;;;;18.37;72.60;99045.41;5047808;28;20058;-82
2022/07/31 01:48:38;;;;;;;7.28;6.57;;;;;;;18.23;72.90;99029.09;5064346;28;20048;-82
2022/07/31 01:51:07;;;;;;;7.03;6.20;;;;;;;18.33;72.46;99033.53;5066546;28;20165;-83
2022/07/31 01:53:35;;;;;;;11.15;6.45;;;;;;;18.29;72.90;99038.75;5055633;28;20039;-82
2022/07/31 01:56:01;;;;;;;6.05;5.57;;;;;;;18.31;72.95;99049.25;5065337;28;20028;-82
2022/07/31 01:58:31;;;;;;;6.78;6.18;;;;;;;18.27;72.75;99040.13;5069638;28;20077;-82
2022/07/31 02:00:59;;;;;;;8.25;7.00;;;;;;;18.33;72.73;99044.34;5068927;28;20025;-82
2022/07/31 02:03:25;;;;;;;8.63;7.80;;;;;;;18.32;72.59;99042.75;5081386;28;20045;-83
2022/07/31 02:05:52;;;;;;;7.38;6.55;;;;;;;18.15;72.66;99028.97;5066042;28;20032;-82
2022/07/31 02:08:19;;;;;;;6.47;5.88;;;;;;;18.02;72.99;99022.38;5064229;28;20029;-83
2022/07/31 02:10:45;;;;;;;7.88;6.50;;;;;;;18.08;73.33;99042.03;5052341;28;20387;-83
2022/07/31 02:13:12;;;;;;;6.05;5.45;;;;;;;18.03;73.00;99032.09;5065263;28;20617;-82
2022/07/31 02:15:40;;;;;;;9.40;8.32;;;;;;;17.77;75.12;99028.97;5050033;28;20060;-82
2022/07/31 02:18:07;;;;;;;9.20;8.00;;;;;;;17.77;75.02;99050.56;5068367;28;20093;-83
2022/07/31 02:20:33;;;;;;;6.78;6.22;;;;;;;17.55;76.16;99047.59;5076211;28;20032;-83
2022/07/31 02:23:00;;;;;;;10.73;9.73;;;;;;;17.33;78.01;99043.78;5071753;28;20036;-82
2022/07/31 02:25:26;;;;;;;7.80;7.10;;;;;;;17.41;75.02;99033.16;5054675;28;20033;-82
2022/07/31 02:27:54;;;;;;;9.52;8.73;;;;;;;17.31;76.00;99017.09;5063341;28;20032;-83
2022/07/31 02:30:20;;;;;;;7.03;6.35;;;;;;;17.38;74.50;99024.84;5067279;28;20050;-82
2022/07/31 02:32:47;;;;;;;7.53;5.95;;;;;;;17.73;73.88;99036.03;5069474;28;20048;-83
2022/07/31 02:35:15;;;;;;;12.38;7.85;;;;;;;17.14;75.05;98962.81;5051400;28;20031;-83
2022/07/31 02:37:41;;;;;;;7.20;6.50;;;;;;;17.62;74.22;99039.97;5076242;28;20029;-82
2022/07/31 02:40:09;;;;;;;8.85;6.95;;;;;;;17.40;75.09;99017.25;5046646;28;20120;-82
2022/07/31 02:42:35;;;;;;;12.70;8.48;;;;;;;16.85;78.45;99032.16;5084045;28;20063;-82
2022/07/31 02:45:01;;;;;;;10.95;9.88;;;;;;;16.26;82.39;99049.31;5063445;28;20547;-83
2022/07/31 02:47:29;;;;;;;11.90;9.65;;;;;;;16.33;80.92;99030.97;5052695;28;20115;-82
2022/07/31 02:49:56;;;;;;;8.35;7.18;;;;;;;17.03;75.64;99020.66;5060062;28;20035;-82
2022/07/31 02:52:22;;;;;;;7.55;6.88;;;;;;;16.97;76.12;99019.09;5046946;28;20051;-83
2022/07/31 02:54:49;;;;;;;6.65;5.93;;;;;;;17.05;75.10;99005.78;5070895;28;20028;-83
2022/07/31 02:57:16;;;;;;;7.35;6.55;;;;;;;16.93;75.30;98999.16;5034538;28;20551;-82
2022/07/31 02:59:42;;;;;;;9.73;8.88;;;;;;;16.55;79.71;99025.16;5048388;28;20032;-83
2022/07/31 03:02:08;;;;;;;8.40;6.32;;;;;;;16.69;77.74;99031.47;5068230;28;20105;-83
2022/07/31 03:04:34;;;;;;;6.78;6.15;;;;;;;17.17;75.02;99022.38;5067564;28;20029;-83
2022/07/31 03:07:00;;;;;;;6.68;6.07;;;;;;;17.40;73.77;99012.66;5067081;28;20119;-82
2022/07/31 03:09:29;;;;;;;7.28;5.82;;;;;;;17.54;73.19;99010.88;5045366;28;20060;-83
2022/07/31 03:11:56;;;;;;;6.05;5.55;;;;;;;17.58;72.81;99006.50;5050129;28;20496;-82
2022/07/31 03:14:22;;;;;;;8.85;6.38;;;;;;;17.53;73.48;99012.00;5051031;28;20121;-83
2022/07/31 03:16:49;;;;;;;6.28;5.63;;;;;;;17.60;73.01;99017.84;5061411;28;20059;-83
2022/07/31 03:19:15;;;;;;;6.35;5.75;;;;;;;17.25;73.53;98988.56;5059543;28;20107;-83
2022/07/31 03:21:41;;;;;;;7.55;5.43;;;;;;;17.17;73.67;98986.50;5066761;28;20169;-82
2022/07/31 03:24:07;;;;;;;6.38;5.78;;;;;;;17.45;72.91;98988.31;5083467;28;20361;-82
2022/07/31 03:26:32;;;;;;;7.30;6.25;;;;;;;17.58;72.84;99003.03;5068008;28;20023;-83
2022/07/31 03:29:01;;;;;;;7.20;6.38;;;;;;;17.55;73.04;98990.09;5063933;28;20059;-83
2022/07/31 03:31:26;;;;;;;6.38;5.85;;;;;;;17.73;72.32;99019.84;5064872;28;20033;-83
2022/07/31 03:33:52;;;;;;;6.75;6.10;;;;;;;17.55;73.02;99000.91;5064140;28;20534;-83
2022/07/31 03:36:17;;;;;;;9.40;8.27;;;;;;;17.30;74.40;99020.88;5065680;28;20034;-83
2022/07/31 03:38:43;;;;;;;7.00;6.40;;;;;;;16.96;74.21;98982.44;5059645;28;20024;-82
2022/07/31 03:41:09;;;;;;;8.43;6.38;;;;;;;17.34;73.22;99000.34;5048308;28;20040;-82
2022/07/31 03:43:36;;;;;;;7.03;6.43;;;;;;;17.58;72.95;99017.31;5051399;28;20095;-83
2022/07/31 03:46:02;;;;;;;6.45;5.88;;;;;;;17.51;72.61;99006.09;5065824;28;20024;-83
2022/07/31 03:48:29;;;;;;;6.82;6.22;;;;;;;17.55;73.08;99028.72;5066605;28;20138;-83
2022/07/31 03:50:55;;;;;;;7.05;6.35;;;;;;;17.56;72.63;99022.19;5081210;28;20545;-82
2022/07/31 03:53:22;;;;;;;6.60;5.97;;;;;;;17.55;72.37;99020.59;5078990;28;20637;-82
2022/07/31 03:55:48;;;;;;;6.38;5.80;;;;;;;17.51;72.57;99026.88;5065779;28;20124;-82
2022/07/31 03:58:15;;;;;;;8.55;6.78;;;;;;;17.41;72.54;99008.09;5063863;28;20481;-82
2022/07/31 04:00:42;;;;;;;6.20;5.60;;;;;;;17.36;72.57;99006.25;5048491;28;20037;-82
2022/07/31 04:03:10;;;;;;;6.97;6.28;;;;;;;17.09;74.14;99027.59;5069058;28;20556;-82
2022/07/31 04:05:37;;;;;;;6.68;6.07;;;;;;;17.19;73.26;99030.97;5060499;28;20388;-82
2022/07/31 04:08:02;;;;;;;14.45;7.55;;;;;;;16.29;76.48;99004.88;5063611;28;20036;-82
2022/07/31 04:10:28;;;;;;;9.05;7.78;;;;;;;15.83;78.63;99017.03;5044811;28;20032;-82
2022/07/31 04:12:53;;;;;;;6.93;6.03;;;;;;;16.06;77.44;99027.09;5031661;28;20028;-83
2022/07/31 04:15:19;;;;;;;6.25;5.65;;;;;;;16.44;75.92;99023.59;5064567;28;20032;-82
2022/07/31 04:17:44;;;;;;;6.40;5.80;;;;;;;16.88;74.05;99015.41;5069124;28;20032;-82
2022/07/31 04:20:10;;;;;;;6.72;6.13;;;;;;;17.02;73.14;99036.03;5043919;28;20161;-82
2022/07/31 04:22:37;;;;;;;9.77;6.60;;;;;;;16.95;73.85;99037.47;5049991;28;20031;-83
2022/07/31 04:25:05;;;;;;;7.18;5.50;;;;;;;16.72;74.42;99035.50;5062484;28;20499;-83
2022/07/31 04:27:31;;;;;;;6.80;5.22;;;;;;;17.06;73.46;99038.94;5063896;28;20036;-83
2022/07/31 04:29:57;;;;;;;11.23;9.02;;;;;;;16.58;76.02;99050.75;5048276;28;20039;-83
2022/07/31 04:32:23;;;;;;;7.68;5.95;;;;;;;16.69;75.58;99050.34;5063437;28;20341;-83
2022/07/31 04:34:49;;;;;;;9.15;7.38;;;;;;;17.00;73.59;99038.19;5062781;28;20025;-83
2022/07/31 04:37:15;;;;;;;8.25;7.45;;;;;;;16.70;77.67;99048.47;5061268;28;20040;-83
2022/07/31 04:39:41;;;;;;;9.75;7.68;;;;;;;16.37;79.80;99052.75;5062342;28;20024;-83
2022/07/31 04:42:07;;;;;;;7.90;7.20;;;;;;;16.27;80.59;99050.13;5062550;28;20535;-83
2022/07/31 04:44:33;;;;;;;8.20;5.70;;;;;;;16.23;81.59;99033.72;5066485;28;20064;-82
2022/07/31 04:47:03;;;;;;;8.27;7.40;;;;;;;16.59;79.73;99050.44;5064114;28;20020;-82
2022/07/31 04:49:29;;;;;;;7.72;6.97;;;;;;;16.61;80.88;99055.53;5061393;28;20033;-82
2022/07/31 04:51:56;;;;;;;13.07;9.27;;;;;;;16.51;82.07;99044.88;5059978;28;20029;-82
2022/07/31 04:54:21;;;;;;;12.13;10.35;;;;;;;16.45;82.95;99052.94;5061313;28;20028;-82
2022/07/31 04:56:47;;;;;;;12.23;10.95;;;;;;;16.23;83.73;99036.41;5077761;28;20093;-82
2022/07/31 04:59:15;;;;;;;13.80;12.38;;;;;;;16.23;83.78;99043.66;5044048;28;20028;-82
2022/07/31 05:01:42;;;;;;;13.02;11.73;;;;;;;16.33;84.56;99059.78;5046198;28;20024;-83
2022/07/31 05:04:08;;;;;;;11.60;10.50;;;;;;;16.41;83.63;99059.19;5065687;28;20145;-82
2022/07/31 05:06:38;;;;;;;9.95;9.13;;;;;;;16.63;83.13;99064.16;5032422;28;20112;-82
2022/07/31 05:09:05;;;;;;;8.23;7.50;;;;;;;16.94;80.39;99065.50;5084150;28;20036;-82
2022/07/31 05:11:31;;;;;;;9.02;6.78;;;;;;;16.99;80.42;99060.06;5052652;28;20025;-81
2022/07/31 05:14:00;;;;;;;6.80;6.00;;;;;;;17.49;75.76;99054.13;5066457;28;20035;-82
2022/07/31 05:16:27;;;;;;;6.43;5.65;;;;;;;17.73;74.59;99062.22;5085124;28;20048;-82
2022/07/31 05:18:53;;;;;;;6.10;5.57;;;;;;;17.90;73.65;99055.25;5067204;28;20035;-82
2022/07/31 05:21:19;;;;;;;7.30;6.55;;;;;;;17.48;74.13;98982.34;5056458;28;20377;-82
2022/07/31 05:23:46;;;;;;;16.38;9.82;;;;;;;18.02;75.57;99062.13;5071436;28;20029;-82
2022/07/31 05:26:13;;;;;;;9.20;7.03;;;;;;;17.94;75.23;99052.75;5070789;28;20029;-82
2022/07/31 05:28:39;;;;;;;5.88;5.43;;;;;;;18.18;72.12;99050.78;5066419;28;20029;-82
2022/07/31 05:31:08;;;;;;;8.27;5.93;;;;;;;18.00;75.24;99042.69;5070253;28;20031;-82
2022/07/31 05:33:34;;;;;;;12.23;9.98;;;;;;;18.12;76.64;99049.25;5071780;28;20028;-82
2022/07/31 05:36:00;;;;;;;13.27;12.02;;;;;;;17.51;80.79;99037.66;5067128;28;20397;-82
2022/07/31 05:38:26;;;;;;;6.70;6.00;;;;;;;17.56;78.42;99045.72;5065903;28;20033;-82
2022/07/31 05:40:52;;;;;;;6.95;6.38;;;;;;;17.84;76.71;99053.69;5045081;28;20766;-81
2022/07/31 05:43:17;;;;;;;17.30;9.82;;;;;;;17.84;77.66;99053.69;5068445;28;20404;-81
2022/07/31 05:45:43;;;;;;;10.65;9.65;;;;;;;18.05;76.19;99050.72;5084198;28;20024;-81
2022/07/31 05:48:08;;;;;;;13.27;10.68;;;;;;;17.71;78.98;99040.91;5066750;28;20021;-82
2022/07/31 05:50:34;;;;;;;6.65;5.93;;;;;;;17.72;74.22;99002.03;5069875;28;20025;-81
2022/07/31 05:52:59;;;;;;;8.75;6.38;;;;;;;18.23;72.83;99049.91;5051937;28;20039;-82
2022/07/31 05:55:25;;;;;;;5.85;5.35;;;;;;;17.97;75.26;99039.47;5075482;28;20093;-82
2022/07/31 05:57:52;;;;;;;9.88;7.97;;;;;;;17.95;76.21;99038.94;5084804;28;20028;-82
2022/07/31 06:00:18;;;;;;;13.00;9.80;;;;;;;17.54;79.33;99032.47;5072792;28;20060;-82
2022/07/31 06:02:44;;;;;;;10.48;8.88;;;;;;;17.11;80.60;99014.63;5072280;28;20048;-81
2022/07/31 06:05:09;;;;;;;10.38;9.15;;;;;;;17.13;81.16;99047.50;5072691;28;20024;-81
2022/07/31 06:07:35;;;;;;;11.90;9.65;;;;;;;16.70;82.47;98992.69;5055599;28;20032;-81
2022/07/31 06:10:01;;;;;;;11.55;9.82;;;;;;;16.77;83.76;99001.25;5080317;28;20115;-81
2022/07/31 06:12:26;;;;;;;9.02;8.30;;;;;;;17.35;81.81;99038.91;5071342;28;20036;-81
2022/07/31 06:14:51;;;;;;;10.52;9.63;;;;;;;17.21;83.13;99028.78;5072435;28;20028;-81
2022/07/31 06:17:17;;;;;;;6.90;6.03;;;;;;;17.08;82.55;99002.50;5087293;28;20504;-82
2022/07/31 06:19:42;;;;;;;6.07;5.47;;;;;;;17.75;76.27;99023.06;5075745;28;20056;-81
2022/07/31 06:22:08;;;;;;;8.05;5.90;;;;;;;18.09;74.48;99022.00;5065191;28;20048;-81
2022/07/31 06:24:33;;;;;;;12.18;9.45;;;;;;;17.93;79.25;99033.03;5069559;28;20017;-81
2022/07/31 06:27:00;;;;;;;11.10;9.75;;;;;;;17.73;80.85;99036.03;5038103;28;20508;-81
2022/07/31 06:29:26;;;;;;;12.93;9.73;;;;;;;17.72;80.11;99028.22;5064485;28;20024;-81
2022/07/31 06:31:53;;;;;;;14.85;10.18;;;;;;;18.01;76.59;99026.19;5049739;28;20119;-81
2022/07/31 06:34:18;;;;;;;11.63;10.00;;;;;;;17.77;78.99;99041.66;5031000;28;20131;-81
2022/07/31 06:36:43;;;;;;;9.02;8.05;;;;;;;17.59;78.85;99026.22;5050320;28;20119;-81
2022/07/31 06:39:09;;;;;;;7.50;6.03;;;;;;;18.23;75.65;99009.38;5054014;28;20034;-81
2022/07/31 06:41:43;;;;;;;9.30;8.38;;;;;;;18.48;77.09;99036.03;5055219;28;20555;-81
2022/07/31 06:44:13;;;;;;;14.45;10.25;;;;;;;18.61;77.51;99040.69;5073211;28;20586;-81
2022/07/31 06:46:39;;;;;;;5.60;5.10;;;;;;;18.82;74.35;99041.97;5089100;28;20111;-81
2022/07/31 06:49:06;;;;;;;5.40;4.95;;;;;;;19.28;70.40;99020.28;5071561;28;20111;-81
2022/07/31 06:51:32;;;;;;;8.93;7.25;;;;;;;19.14;75.94;99049.22;5072469;28;20033;-81
2022/07/31 06:54:02;;;;;;;10.85;9.27;;;;;;;19.21;75.33;99038.81;5072740;28;20028;-81
2022/07/31 06:56:28;;;;;;;7.03;5.72;;;;;;;19.35;72.93;99040.44;5072551;28;20096;-81
2022/07/31 06:58:54;;;;;;;6.70;6.10;;;;;;;19.83;70.65;99040.78;5055782;28;20032;-82
2022/07/31 07:01:20;;;;;;;5.53;4.93;;;;;;;20.00;69.57;99034.75;5055818;28;20115;-82
2022/07/31 07:03:46;;;;;;;9.23;7.78;;;;;;;19.53;73.46;98984.56;5072298;28;20667;-81
2022/07/31 07:06:11;;;;;;;8.35;5.25;;;;;;;20.05;69.94;99015.69;5072302;28;20076;-81
2022/07/31 07:08:37;;;;;;;5.30;4.85;;;;;;;20.01;69.70;99011.94;5071830;28;20503;-81
2022/07/31 07:11:03;;;;;;;7.43;5.05;;;;;;;20.19;70.06;99021.84;5056041;28;20488;-81
2022/07/31 07:13:29;;;;;;;7.70;5.50;;;;;;;20.32;68.92;99012.06;5072539;28;20052;-82
2022/07/31 07:15:55;;;;;;;8.05;6.78;;;;;;;20.46;71.97;99015.53;5071704;28;20038;-81
2022/07/31 07:18:20;;;;;;;5.43;4.85;;;;;;;20.49;68.12;99007.59;5073188;28;20050;-82
2022/07/31 07:20:50;;;;;;;13.15;7.60;;;;;;;20.65;73.37;99011.53;5055625;28;20028;-82
2022/07/31 07:23:16;;;;;;;5.68;5.13;;;;;;;20.56;70.69;99026.13;5055443;28;20037;-81
2022/07/31 07:25:41;;;;;;;9.15;4.68;;;;;;;20.71;69.55;99015.69;5088559;28;20024;-82
2022/07/31 07:28:08;;;;;;;7.28;6.30;;;;;;;20.83;70.75;99010.53;5071478;28;20029;-82
2022/07/31 07:30:34;;;;;;;7.00;5.15;;;;;;;20.67;71.36;99003.06;5088397;28;20060;-81
2022/07/31 07:32:59;;;;;;;12.15;7.07;;;;;;;20.62;70.47;99019.50;5071802;28;20071;-82
2022/07/31 07:35:25;;;;;;;9.27;6.70;;;;;;;20.24;71.29;99010.91;5072689;28;20031;-81
2022/07/31 07:37:51;;;;;;;11.10;5.32;;;;;;;20.93;68.02;99015.66;5071018;28;20032;-82
2022/07/31 07:40:17;;;;;;;9.18;5.97;;;;;;;21.25;69.63;99017.25;5072051;28;20016;-81
2022/07/31 07:42:43;;;;;;;9.52;6.15;;;;;;;21.25;69.73;98997.47;5071435;28;20391;-81
2022/07/31 07:45:09;;;;;;;7.10;6.30;;;;;;;21.30;69.12;99005.47;5071457;28;20115;-82
2022/07/31 07:47:36;;;;;;;9.15;6.00;;;;;;;21.10;68.51;98998.69;5071006;28;20021;-81
2022/07/31 07:50:02;;;;;;;6.05;5.50;;;;;;;21.33;68.80;98988.56;5070790;28;20307;-81
2022/07/31 07:52:28;;;;;;;8.18;5.97;;;;;;;21.44;68.56;98979.81;5054444;28;20059;-81
2022/07/31 07:54:53;;;;;;;6.30;4.60;;;;;;;21.55;68.12;99002.03;5054556;28;20032;-81
2022/07/31 07:57:19;;;;;;;7.93;5.80;;;;;;;21.78;69.08;98998.06;5070913;28;20476;-82
2022/07/31 07:59:46;;;;;;;5.43;4.93;;;;;;;21.96;67.27;98997.00;5072047;28;20035;-82
2022/07/31 08:02:12;;;;;;;9.07;6.20;;;;;;;22.04;66.30;98995.44;5070806;28;20025;-82
2022/07/31 08:04:38;;;;;;;7.88;5.93;;;;;;;21.47;67.90;98945.78;5070873;28;20036;-81
2022/07/31 08:07:04;;;;;;;6.85;5.38;;;;;;;21.40;66.46;98989.72;5072018;28;20024;-82
2022/07/31 08:09:30;;;;;;;7.93;5.38;;;;;;;21.67;67.09;98992.16;5054167;28;20450;-81
2022/07/31 08:11:55;;;;;;;7.75;5.35;;;;;;;21.95;67.43;98983.75;5070990;28;20421;-81
2022/07/31 08:14:20;;;;;;;8.73;5.72;;;;;;;22.02;66.25;98982.13;5054136;28;20035;-81
2022/07/31 08:16:46;;;;;;;13.68;6.25;;;;;;;21.89;65.78;98982.28;5053842;28;20036;-81
2022/07/31 08:19:12;;;;;;;8.48;6.35;;;;;;;21.93;66.40;98981.34;5053921;28;20706;-81
2022/07/31 08:21:38;;;;;;;6.20;4.78;;;;;;;22.13;66.66;98979.91;5070685;28;20488;-82
2022/07/31 08:24:04;;;;;;;6.18;5.38;;;;;;;22.37;64.37;98970.13;5054220;28;20470;-81
2022/07/31 08:27:22;;;;;;;6.80;5.60;;;;;;;22.43;64.37;98976.22;5070548;28;20051;-81
2022/07/31 08:29:15;;;;;;;7.13;5.38;;;;;;;22.43;65.88;98970.78;5072032;28;20041;-81
2022/07/31 08:31:40;;;;;;;4.40;4.10;;;;;;;22.80;64.11;98959.16;5053870;28;20035;-81
2022/07/31 08:34:06;;;;;;;4.88;4.47;;;;;;;23.07;61.49;98977.00;5072016;28;20051;-82
2022/07/31 08:36:32;;;;;;;5.22;4.05;;;;;;;23.18;61.68;98958.34;5053765;28;20043;-81
2022/07/31 08:38:57;;;;;;;8.25;4.55;;;;;;;23.26;61.48;98965.72;5069797;28;20574;-82
2022/07/31 08:41:23;;;;;;;5.28;4.53;;;;;;;22.96;61.79;98951.25;5070626;28;20044;-81
2022/07/31 08:43:48;;;;;;;5.13;4.65;;;;;;;22.72;60.44;98951.00;5070624;28;20032;-81
2022/07/31 08:46:14;;;;;;;6.95;3.90;;;;;;;22.83;61.92;98966.69;5071946;28;20016;-81
2022/07/31 08:48:40;;;;;;;4.78;4.13;;;;;;;23.33;61.35;98957.81;5071772;28;20357;-82
2022/07/31 08:51:10;;;;;;;5.72;4.65;;;;;;;23.27;62.95;98967.28;5057545;28;20021;-82
2022/07/31 08:53:38;;;;;;;6.85;4.80;;;;;;;22.88;61.07;98954.81;5074329;28;20025;-81
2022/07/31 08:56:05;;;;;;;5.70;4.00;;;;;;;23.26;62.07;98958.34;5074385;28;20021;-82
2022/07/31 08:58:30;;;;;;;7.00;4.78;;;;;;;23.22;61.81;98949.19;5057802;28;20028;-81
2022/07/31 09:00:56;;;;;;;10.25;4.22;;;;;;;23.17;59.52;98957.59;5075621;28;20127;-81
2022/07/31 09:03:22;;;;;;;3.78;3.05;;;;;;;23.51;60.63;98934.81;5073954;28;20628;-82
2022/07/31 09:05:47;;;;;;;6.55;4.68;;;;;;;23.58;58.32;98945.97;5074295;28;20020;-82
2022/07/31 09:08:13;;;;;;;6.00;4.15;;;;;;;23.80;59.23;98938.28;5075063;28;20078;-82
2022/07/31 09:10:38;;;;;;;5.20;4.10;;;;;;;23.76;57.84;98950.97;5074167;28;20032;-82
2022/07/31 09:13:16;;;;;;;5.32;3.40;;;;;;;23.81;58.89;98928.97;5074239;28;20025;-82
2022/07/31 09:15:42;;;;;;;3.83;3.53;;;;;;;23.96;60.40;98943.91;5074191;28;20086;-81
2022/07/31 09:18:20;;;;;;;3.50;3.15;;;;;;;24.18;58.88;98937.38;5074138;28;20427;-81
2022/07/31 09:20:59;;;;;;;4.05;3.75;;;;;;;24.22;58.14;98939.06;5074037;28;20039;-81
2022/07/31 09:23:25;;;;;;;3.55;3.25;;;;;;;24.03;58.88;98921.56;5057463;28;20094;-81
2022/07/31 09:26:02;;;;;;;4.78;3.35;;;;;;;24.24;58.06;98928.63;5057266;28;20495;-82
2022/07/31 09:28:34;;;;;;;3.38;3.08;;;;;;;24.08;57.51;98937.75;5073711;28;20028;-81
2022/07/31 09:31:00;;;;;;;3.88;3.58;;;;;;;24.04;58.00;98925.91;5074991;28;20029;-81
2022/07/31 09:33:28;;;;;;;3.22;2.97;;;;;;;24.06;57.07;98920.94;5073498;28;20032;-82
2022/07/31 09:35:53;;;;;;;2.72;2.53;;;;;;;24.13;56.54;98924.72;5073551;28;20028;-82
2022/07/31 09:38:19;;;;;;;4.00;3.17;;;;;;;24.12;56.34;98917.66;5055948;28;20025;-81
2022/07/31 09:40:45;;;;;;;5.80;3.10;;;;;;;24.19;55.38;98917.94;5073440;28;20024;-82
2022/07/31 09:43:23;;;;;;;4.90;2.92;;;;;;;24.21;55.17;98925.75;5074563;28;20353;-81
2022/07/31 09:46:03;;;;;;;6.35;3.45;;;;;;;24.14;55.63;98903.69;5075064;28;20020;-82
2022/07/31 09:48:28;;;;;;;2.92;2.63;;;;;;;24.46;54.57;98928.22;5056842;28;20032;-80
2022/07/31 09:51:20;;;;;;;3.35;3.00;;;;;;;24.58;54.87;98905.63;5073538;28;20430;-80
2022/07/31 09:53:54;;;;;;;6.28;3.70;;;;;;;24.77;53.25;98907.84;5073106;28;20488;-80
2022/07/31 09:56:33;;;;;;;6.00;3.20;;;;;;;24.78;53.95;98903.97;5056962;28;20109;-80
2022/07/31 09:58:59;;;;;;;3.15;2.78;;;;;;;24.88;54.25;98903.53;5056621;28;20033;-80
2022/07/31 10:01:25;;;;;;;5.50;3.00;;;;;;;25.00;53.17;98898.06;5073598;28;20024;-80
2022/07/31 10:03:52;;;;;;;7.15;3.28;;;;;;;24.95;53.82;98893.63;5073347;28;20117;-80
2022/07/31 10:06:19;;;;;;;3.95;3.10;;;;;;;24.68;53.88;98842.41;5056397;28;20028;-80
2022/07/31 10:08:45;;;;;;;4.57;3.35;;;;;;;24.98;53.26;98884.75;5072738;28;20051;-80
2022/07/31 10:11:13;;;;;;;5.05;3.05;;;;;;;25.09;52.73;98896.03;5072997;28;20035;-80
2022/07/31 10:13:45;;;;;;;4.18;2.88;;;;;;;25.13;53.33;98896.94;5072727;28;20499;-80
2022/07/31 10:16:11;;;;;;;6.18;3.13;;;;;;;25.00;53.54;98889.88;5074062;28;20035;-80
2022/07/31 10:18:40;;;;;;;2.97;2.78;;;;;;;25.02;53.74;98893.88;5072715;28;20028;-80
2022/07/31 10:21:07;;;;;;;3.55;2.58;;;;;;;25.16;53.06;98893.53;5072666;28;20036;-80
2022/07/31 10:23:35;;;;;;;5.57;3.33;;;;;;;25.21;52.75;98885.88;5072530;28;20462;-80
2022/07/31 10:26:02;;;;;;;10.10;3.10;;;;;;;25.15;51.88;98881.00;5055895;28;20505;-80
2022/07/31 10:28:31;;;;;;;4.32;3.92;;;;;;;25.25;52.47;98881.31;5073535;28;20039;-80
2022/07/31 10:30:57;;;;;;;3.88;2.60;;;;;;;25.33;52.32;98873.34;5072271;28;20388;-80
2022/07/31 10:33:25;;;;;;;3.15;2.80;;;;;;;25.41;52.32;98875.13;5072530;28;20056;-81
2022/07/31 10:36:01;;;;;;;6.03;2.90;;;;;;;25.55;51.93;98881.88;5072321;28;20029;-80
2022/07/31 10:38:40;;;;;;;3.65;3.00;;;;;;;25.60;51.46;98886.31;5071487;28;20024;-80
2022/07/31 10:41:24;;;;;;;4.72;3.33;;;;;;;25.51;51.63;98874.72;5073751;28;20021;-81
2022/07/31 10:44:02;;;;;;;4.47;3.10;;;;;;;25.52;51.94;98873.53;5073564;28;20028;-80
2022/07/31 10:46:28;;;;;;;3.10;2.80;;;;;;;25.55;51.30;98870.94;5071920;28;20533;-80
2022/07/31 10:48:54;;;;;;;6.97;2.70;;;;;;;25.57;50.87;98862.38;5073609;28;20032;-81
2022/07/31 10:51:21;;;;;;;4.35;2.80;;;;;;;25.71;51.44;98874.50;5071759;28;20033;-80
2022/07/31 10:54:01;;;;;;;5.30;2.78;;;;;;;25.62;49.20;98862.16;5071974;28;20078;-80
2022/07/31 10:56:27;;;;;;;6.07;3.17;;;;;;;25.69;50.26;98865.88;5071619;28;20090;-80
2022/07/31 10:58:55;;;;;;;2.85;2.63;;;;;;;25.68;49.84;98864.28;5071846;28;20025;-80
2022/07/31 11:01:21;;;;;;;3.05;2.67;;;;;;;25.52;51.58;98849.75;5073206;28;20541;-80
2022/07/31 11:03:51;;;;;;;3.92;2.55;;;;;;;25.61;50.93;98864.06;5073095;28;20029;-80
2022/07/31 11:06:17;;;;;;;4.15;3.05;;;;;;;25.60;50.55;98851.53;5073304;28;20025;-80
2022/07/31 11:08:47;;;;;;;3.50;2.70;;;;;;;25.48;51.09;98858.97;5055063;28;20082;-80
2022/07/31 11:11:13;;;;;;;5.40;2.40;;;;;;;25.44;51.27;98863.56;5071422;28;20404;-80
2022/07/31 11:13:50;;;;;;;7.80;3.20;;;;;;;25.47;51.07;98847.25;5071763;28;20123;-80
2022/07/31 11:16:17;;;;;;;4.43;3.63;;;;;;;25.59;49.69;98839.03;5071472;28;20353;-80
2022/07/31 11:18:45;;;;;;;5.05;2.72;;;;;;;25.70;50.73;98839.31;5072622;28;20029;-80
2022/07/31 11:21:11;;;;;;;2.97;2.65;;;;;;;25.94;49.92;98828.28;5071962;28;20499;-80
2022/07/31 11:23:37;;;;;;;2.95;2.65;;;;;;;26.25;49.99;98841.25;5071570;28;20090;-80
2022/07/31 11:26:06;;;;;;;8.20;3.33;;;;;;;26.28;49.28;98804.94;5054705;28;20048;-80
2022/07/31 11:28:33;;;;;;;3.70;2.45;;;;;;;26.59;49.30;98827.66;5071139;28;20036;-80
2022/07/31 11:31:00;;;;;;;4.30;2.60;;;;;;;26.80;48.57;98821.16;5071169;28;20071;-80
2022/07/31 11:33:43;;;;;;;5.07;2.40;;;;;;;26.91;48.14;98814.75;5071302;28;20060;-80